Time;durP1;ratioP1;P1;durP2;ratioP2;P2;SDS_P1;SDS_P2;PMS_P1;PMS_P2;Temp;Humidity;BMP_temperature;BMP_pressure;BME280_temperature;BME280_humidity;BME280_pressure;Samples;Min_cycle;Max_cycle;Signal;HPM_P1;HPM_P2
2022/04/04 00:00:53;;;;;;;13.27;11.53;;;3.00;1.00;3.60;100874.00;;;;5106689;28;20471;-79
2022/04/04 00:03:22;;;;;;;11.80;10.70;;;3.10;1.00;3.70;100880.00;;;;5099957;28;20540;-79
2022/04/04 00:05:51;;;;;;;12.10;11.00;;;3.10;1.00;3.70;100876.00;;;;5100315;28;20476;-78
2022/04/04 00:08:21;;;;;;;12.00;10.80;;;3.10;1.00;3.80;100869.00;;;;5100466;28;20460;-80
2022/04/04 00:10:49;;;;;;;12.13;11.07;;;3.10;1.00;3.80;100870.00;;;;5106906;28;20511;-79
2022/04/04 00:13:17;;;;;;;12.13;11.00;;;3.10;1.00;3.70;100848.00;;;;5098895;28;20468;-78
2022/04/04 00:15:47;;;;;;;11.53;10.53;;;3.00;1.00;3.70;100869.00;;;;5120189;28;20484;-79
2022/04/04 00:18:15;;;;;;;11.57;10.67;;;3.30;1.00;3.70;100848.00;;;;5138176;28;20525;-81
2022/04/04 00:20:44;;;;;;;12.53;11.43;;;3.10;1.00;3.70;100861.00;;;;5126482;28;20460;-79
2022/04/04 00:23:13;;;;;;;11.83;10.83;;;3.00;1.00;3.60;100874.00;;;;5119855;28;20500;-80
2022/04/04 00:25:45;;;;;;;12.87;11.67;;;3.00;1.00;3.70;100846.00;;;;5100745;28;20458;-80
2022/04/04 00:28:15;;;;;;;12.53;11.43;;;3.10;1.00;3.80;100850.00;;;;5098239;28;20815;-79
2022/04/04 00:30:44;;;;;;;11.93;10.93;;;3.10;1.00;3.70;100859.00;;;;5099849;28;20449;-80
2022/04/04 00:33:13;;;;;;;12.67;11.57;;;3.10;1.00;3.70;100856.00;;;;5110948;28;20449;-80
2022/04/04 00:35:42;;;;;;;12.27;11.17;;;3.20;1.00;3.70;100857.00;;;;5110659;28;20560;-79
2022/04/04 00:38:11;;;;;;;13.00;11.87;;;3.20;1.00;3.70;100857.00;;;;5106632;28;20476;-80
2022/04/04 00:40:40;;;;;;;12.80;11.60;;;3.20;1.00;3.50;100858.00;;;;5108715;28;20498;-79
2022/04/04 00:43:10;;;;;;;13.43;12.20;;;3.10;1.00;3.50;100867.00;;;;5110670;28;20496;-80
2022/04/04 00:45:38;;;;;;;13.37;12.10;;;3.10;1.00;3.50;100859.00;;;;5105019;28;20989;-79
2022/04/04 00:48:07;;;;;;;14.77;13.27;;;3.00;1.00;3.50;100856.00;;;;5102652;28;20468;-79
2022/04/04 00:50:36;;;;;;;13.27;12.07;;;3.00;1.00;3.50;100857.00;;;;5097946;28;20501;-79
2022/04/04 00:53:08;;;;;;;14.03;12.63;;;3.00;1.00;3.40;100858.00;;;;5096367;28;20800;-80
2022/04/04 00:55:36;;;;;;;13.73;12.43;;;2.90;1.00;3.50;100844.00;;;;5095561;28;20636;-80
2022/04/04 00:58:06;;;;;;;17.93;11.50;;;2.90;1.00;3.50;100820.00;;;;5097076;28;20452;-80
2022/04/04 01:00:37;;;;;;;12.83;11.57;;;2.90;1.00;3.50;100834.00;;;;5096731;28;20553;-80
2022/04/04 01:03:05;;;;;;;13.43;12.20;;;2.80;1.00;3.50;100824.00;;;;5091482;28;21173;-81
2022/04/04 01:05:34;;;;;;;12.73;11.60;;;2.80;1.00;3.50;100843.00;;;;5097531;28;20477;-80
2022/04/04 01:08:02;;;;;;;12.40;11.30;;;2.80;1.00;3.50;100837.00;;;;5114483;27;20951;-79
2022/04/04 01:10:30;;;;;;;12.37;11.17;;;2.90;1.00;3.50;100822.00;;;;5096410;28;20473;-80
2022/04/04 01:12:59;;;;;;;13.30;12.10;;;2.90;1.00;3.50;100816.00;;;;5090026;28;20460;-79
2022/04/04 01:15:32;;;;;;;13.50;12.20;;;2.90;1.00;3.50;100807.00;;;;5094343;28;22406;-79
2022/04/04 01:18:02;;;;;;;12.80;11.60;;;2.80;1.00;3.50;100821.00;;;;5105907;27;20541;-80
2022/04/04 01:20:31;;;;;;;12.90;11.73;;;2.80;1.00;3.30;100806.00;;;;5095457;28;20438;-80
2022/04/04 01:23:00;;;;;;;12.47;11.20;;;2.90;1.00;3.30;100801.00;;;;5095007;28;20529;-80
2022/04/04 01:25:32;;;;;;;12.43;11.30;;;2.80;1.00;3.00;100805.00;;;;5099788;28;20445;-80
2022/04/04 01:28:02;;;;;;;13.30;12.00;;;2.80;1.00;3.10;100812.00;;;;5094762;28;20442;-79
2022/04/04 01:30:32;;;;;;;13.27;12.07;;;2.70;1.00;3.00;100810.00;;;;5095710;28;20506;-80
2022/04/04 01:33:00;;;;;;;12.30;11.13;;;2.60;1.00;3.10;100813.00;;;;5094003;28;20457;-80
2022/04/04 01:35:30;;;;;;;12.27;11.27;;;2.60;1.00;3.20;100798.00;;;;5110227;27;20470;-80
2022/04/04 01:37:58;;;;;;;11.57;10.47;;;2.60;1.00;3.20;100806.00;;;;5095186;28;20467;-80
2022/04/04 01:40:26;;;;;;;12.13;11.03;;;2.70;1.00;3.30;100801.00;;;;5095999;28;20549;-80
2022/04/04 01:42:57;;;;;;;11.33;10.23;;;2.70;1.00;3.20;100805.00;;;;5094311;28;20469;-80
2022/04/04 01:48:12;;;;;;;10.53;9.53;;;2.70;1.00;3.20;100804.00;;;;5095526;28;20446;-79
2022/04/04 01:50:41;;;;;;;11.30;10.20;;;2.60;1.00;3.30;100800.00;;;;5095074;28;20454;-78
2022/04/04 01:53:29;;;;;;;11.43;10.30;;;2.70;1.00;3.30;100807.00;;;;5093132;28;20437;-78
2022/04/04 01:56:00;;;;;;;12.20;10.90;;;2.70;1.00;3.20;100793.00;;;;5093702;28;20485;-78
2022/04/04 01:58:31;;;;;;;11.00;10.00;;;2.80;1.00;3.30;100771.00;;;;5093680;28;20464;-79
2022/04/04 02:01:01;;;;;;;11.40;10.23;;;2.70;1.00;3.20;100796.00;;;;5092820;28;20461;-79
2022/04/04 02:03:32;;;;;;;11.87;10.77;;;2.60;1.00;3.30;100789.00;;;;5093314;28;20450;-80
2022/04/04 02:06:02;;;;;;;11.80;10.70;;;2.70;1.00;3.30;100792.00;;;;5093713;28;21502;-80
2022/04/04 02:08:30;;;;;;;12.47;11.27;;;2.80;1.00;3.30;100785.00;;;;5097479;28;20485;-79
2022/04/04 02:10:59;;;;;;;11.47;10.30;;;2.80;1.00;3.20;100797.00;;;;5096196;28;21088;-80
2022/04/04 02:13:28;;;;;;;11.73;10.50;;;2.80;1.00;3.20;100783.00;;;;5093674;28;20453;-80
2022/04/04 02:16:01;;;;;;;12.97;11.67;;;2.80;1.00;3.10;100795.00;;;;5109466;27;20486;-78
2022/04/04 02:18:31;;;;;;;11.97;10.87;;;2.60;1.00;3.00;100770.00;;;;5088957;28;20458;-79
2022/04/04 02:21:00;;;;;;;11.70;10.50;;;2.50;1.00;3.00;100778.00;;;;5094274;28;20445;-79
2022/04/04 02:23:29;;;;;;;12.30;10.97;;;2.50;1.00;3.10;100786.00;;;;5092175;28;20445;-80
2022/04/04 02:25:58;;;;;;;12.47;11.37;;;2.60;1.00;3.10;100782.00;;;;5097129;28;20477;-78
2022/04/04 02:28:27;;;;;;;12.30;11.10;;;2.50;1.00;3.00;100775.00;;;;5097731;28;20454;-80
2022/04/04 02:30:58;;;;;;;12.77;11.47;;;2.50;1.00;3.00;100785.00;;;;5088813;28;20453;-79
2022/04/04 02:33:27;;;;;;;13.57;12.27;;;2.50;1.00;3.00;100781.00;;;;5120548;28;20434;-80
2022/04/04 02:35:56;;;;;;;12.67;11.47;;;2.70;1.00;3.00;100768.00;;;;5126254;28;20898;-80
2022/04/04 02:38:27;;;;;;;13.30;11.90;;;2.30;1.00;2.90;100786.00;;;;5116752;28;20442;-79
2022/04/04 02:40:58;;;;;;;11.90;10.90;;;2.20;1.00;2.80;100758.00;;;;5109601;28;20654;-81
2022/04/04 02:43:27;;;;;;;12.73;11.53;;;2.20;1.00;2.70;100767.00;;;;5114468;28;20483;-80
2022/04/04 02:45:55;;;;;;;11.77;10.57;;;2.10;1.00;2.80;100781.00;;;;5106711;28;20477;-77
2022/04/04 02:48:25;;;;;;;14.50;12.13;;;2.10;1.00;2.80;100774.00;;;;5114822;28;20444;-79
2022/04/04 02:50:53;;;;;;;13.60;12.23;;;2.10;1.00;2.70;100757.00;;;;5117692;28;20524;-79
2022/04/04 02:53:22;;;;;;;13.50;12.20;;;2.10;1.00;2.70;100762.00;;;;5096701;28;20453;-80
2022/04/04 02:58:37;;;;;;;13.20;11.80;;;2.20;1.00;2.70;100743.00;;;;5096638;28;20441;-79
2022/04/04 03:01:05;;;;;;;12.40;11.20;;;2.10;1.00;2.70;100764.00;;;;5092845;28;20539;-79
2022/04/04 03:03:35;;;;;;;13.83;12.40;;;2.10;1.00;2.70;100748.00;;;;5090512;28;20456;-78
2022/04/04 03:06:04;;;;;;;12.83;11.53;;;2.10;1.00;2.60;66840.00;;;;5091799;28;20476;-78
2022/04/04 03:08:32;;;;;;;13.13;11.77;;;2.00;1.00;2.60;100751.00;;;;5093238;28;20462;-79
2022/04/04 03:11:00;;;;;;;14.50;13.03;;;2.00;1.00;2.60;100739.00;;;;5093424;28;20488;-78
2022/04/04 03:13:29;;;;;;;13.70;12.20;;;2.00;1.00;2.60;100742.00;;;;5091825;28;20453;-79
2022/04/04 03:15:58;;;;;;;13.30;12.00;;;2.00;1.00;2.60;100756.00;;;;5101826;28;20466;-78
2022/04/04 03:18:27;;;;;;;14.17;12.87;;;1.90;1.00;2.60;100745.00;;;;5103621;28;20947;-79
2022/04/04 03:20:57;;;;;;;13.90;12.50;;;1.90;1.00;2.60;100741.00;;;;5098032;28;20544;-78
2022/04/04 03:23:27;;;;;;;14.57;13.07;;;2.00;1.00;2.60;100740.00;;;;5100525;28;20457;-80
2022/04/04 03:25:55;;;;;;;15.10;13.60;;;1.90;1.00;2.60;100730.00;;;;5095709;28;21167;-80
2022/04/04 03:28:25;;;;;;;16.30;12.80;;;1.90;1.00;2.50;100729.00;;;;5095831;28;21299;-79
2022/04/04 03:30:54;;;;;;;13.83;12.43;;;1.90;1.00;2.60;100737.00;;;;5093726;28;20450;-78
2022/04/04 03:33:22;;;;;;;16.77;12.73;;;1.90;1.00;2.60;66840.00;;;;5093106;28;20450;-79
2022/04/04 03:35:51;;;;;;;14.47;13.07;;;2.10;1.00;2.70;100729.00;;;;5094248;28;20522;-78
2022/04/04 03:38:21;;;;;;;14.00;12.60;;;2.10;1.00;2.80;100733.00;;;;5097377;28;20990;-77
2022/04/04 03:40:49;;;;;;;13.40;12.00;;;2.30;1.00;2.80;100722.00;;;;5104837;28;20442;-76
2022/04/04 03:43:17;;;;;;;19.20;12.37;;;2.50;1.00;2.90;100711.00;;;;5107846;28;20463;-77
2022/04/04 03:45:46;;;;;;;13.70;12.30;;;2.30;1.00;2.90;100720.00;;;;5103630;28;20453;-78
2022/04/04 03:48:15;;;;;;;14.30;12.90;;;2.40;1.00;2.90;100716.00;;;;5108768;28;20465;-78
2022/04/04 03:50:45;;;;;;;14.23;12.83;;;2.40;1.00;2.90;100687.00;;;;5108014;28;20461;-79
2022/04/04 03:53:14;;;;;;;13.77;12.47;;;2.40;1.00;2.90;100714.00;;;;5103483;28;20455;-79
2022/04/04 03:55:44;;;;;;;14.13;12.67;;;2.50;1.00;2.90;100714.00;;;;5092092;28;20460;-77
2022/04/04 03:58:12;;;;;;;15.67;14.20;;;2.40;1.00;3.00;100717.00;;;;5101873;28;20534;-78
2022/04/04 04:00:42;;;;;;;15.33;13.53;;;2.70;1.00;3.10;100712.00;;;;5104568;28;20557;-78
2022/04/04 04:03:10;;;;;;;13.47;11.97;;;2.50;1.00;3.10;100696.00;;;;5104011;28;20497;-77
2022/04/04 04:05:39;;;;;;;15.17;13.60;;;2.70;1.00;3.20;100697.00;;;;5107013;28;20470;-78
2022/04/04 04:08:08;;;;;;;14.13;12.60;;;2.70;1.00;3.20;100689.00;;;;5106051;28;20836;-79
2022/04/04 04:10:36;;;;;;;15.70;14.10;;;2.70;1.00;3.10;100675.00;;;;5107002;28;20483;-79
2022/04/04 04:13:06;;;;;;;15.60;14.00;;;2.70;1.00;3.20;100687.00;;;;5099219;28;20571;-79
2022/04/04 04:16:02;;;;;;;14.67;13.27;;;2.70;1.00;3.10;100688.00;;;;5098592;28;20450;-78
2022/04/04 04:18:34;;;;;;;14.00;12.60;;;2.70;1.00;3.10;100685.00;;;;5102042;28;20467;-79
2022/04/04 04:21:03;;;;;;;15.30;13.80;;;2.60;1.00;3.00;100693.00;;;;5099531;28;20454;-79
2022/04/04 04:23:31;;;;;;;14.60;13.17;;;2.50;1.00;3.00;100685.00;;;;5099280;28;20453;-79
2022/04/04 04:26:00;;;;;;;15.07;13.43;;;2.60;1.00;3.10;100676.00;;;;5106227;28;20489;-79
2022/04/04 04:28:29;;;;;;;14.07;12.73;;;2.60;1.00;3.10;100675.00;;;;5107682;28;20446;-78
2022/04/04 04:30:58;;;;;;;15.53;13.90;;;2.60;1.00;3.10;100674.00;;;;5111108;28;20454;-78
2022/04/04 04:33:26;;;;;;;14.90;13.50;;;2.60;1.00;3.10;100678.00;;;;5116069;28;20525;-78
2022/04/04 04:35:55;;;;;;;15.40;13.80;;;2.50;1.00;3.00;100675.00;;;;5112240;28;20481;-79
2022/04/04 04:38:23;;;;;;;14.70;13.30;;;2.60;1.00;3.00;100672.00;;;;5102107;28;20477;-79
2022/04/04 04:40:51;;;;;;;14.63;13.20;;;2.50;1.00;3.00;100666.00;;;;5103007;28;20452;-79
2022/04/04 04:43:20;;;;;;;14.97;13.23;;;2.40;1.00;2.90;100676.00;;;;5108806;28;20533;-79
2022/04/04 04:45:51;;;;;;;18.00;14.13;;;2.30;1.00;2.80;100666.00;;;;5100784;28;20957;-77
2022/04/04 04:48:19;;;;;;;16.33;14.73;;;2.20;1.00;2.80;100675.00;;;;5094296;28;20462;-78
2022/04/04 04:50:48;;;;;;;15.30;13.87;;;2.20;1.00;2.70;100661.00;;;;5129752;28;20452;-77
2022/04/04 04:53:17;;;;;;;15.87;14.30;;;2.30;1.00;2.70;100663.00;;;;5117516;28;20459;-76
2022/04/04 04:55:46;;;;;;;17.17;15.47;;;2.10;1.00;2.70;100655.00;;;;5119574;28;20441;-78
2022/04/04 04:58:15;;;;;;;16.70;14.40;;;2.10;1.00;2.70;100649.00;;;;5076246;28;21045;-78
2022/04/04 05:00:43;;;;;;;17.20;15.40;;;2.10;1.00;2.60;100648.00;;;;5093318;28;20492;-79
2022/04/04 05:03:28;;;;;;;14.53;13.13;;;2.10;1.00;2.70;100646.00;;;;5097278;28;20454;-78
2022/04/04 05:05:57;;;;;;;15.60;13.93;;;2.10;1.00;2.70;100651.00;;;;5094452;28;20473;-78
2022/04/04 05:08:25;;;;;;;14.90;13.33;;;2.10;1.00;2.60;100625.00;;;;5093986;28;20477;-78
2022/04/04 05:10:54;;;;;;;15.43;13.77;;;2.00;1.00;2.70;100655.00;;;;5094726;28;21173;-78
2022/04/04 05:13:22;;;;;;;17.90;13.47;;;2.10;1.00;217.30;157854.00;;;;5096250;28;21359;-80
2022/04/04 05:15:51;;;;;;;15.00;13.50;;;2.20;1.00;2.70;100650.00;;;;5096101;28;20558;-79
2022/04/04 05:18:21;;;;;;;15.20;13.60;;;2.10;1.00;2.80;100649.00;;;;5097386;28;20487;-82
2022/04/04 05:20:49;;;;;;;13.80;12.50;;;2.20;1.00;2.80;100634.00;;;;5099919;28;20467;-82
2022/04/04 05:23:18;;;;;;;14.00;12.60;;;2.30;1.00;2.90;100642.00;;;;5096446;28;20881;-78
2022/04/04 05:25:47;;;;;;;15.17;13.60;;;2.30;1.00;3.00;100634.00;;;;5096719;28;20985;-78
2022/04/04 05:28:15;;;;;;;14.80;13.40;;;2.40;1.00;3.10;100641.00;;;;5102861;28;20441;-77
2022/04/04 05:30:43;;;;;;;15.40;13.90;;;2.50;1.00;3.20;100635.00;;;;5097471;28;20814;-78
2022/04/04 05:33:12;;;;;;;14.13;12.70;;;2.50;1.00;3.20;100635.00;;;;5101326;28;20449;-80
2022/04/04 05:35:41;;;;;;;16.30;13.87;;;2.60;1.00;3.20;100641.00;;;;5099641;28;20456;-81
2022/04/04 05:38:11;;;;;;;14.77;13.37;;;2.80;1.00;3.20;100651.00;;;;5097736;28;20546;-77
2022/04/04 05:40:39;;;;;;;18.10;13.77;;;2.80;1.00;3.20;100632.00;;;;5101452;28;20969;-77
2022/04/04 05:43:08;;;;;;;14.33;12.57;;;2.70;1.00;3.20;100640.00;;;;5098267;28;20449;-79
2022/04/04 05:45:39;;;;;;;15.23;13.57;;;2.80;1.00;3.30;100636.00;;;;5099593;28;21015;-77
2022/04/04 05:48:08;;;;;;;14.47;12.97;;;2.80;1.00;3.30;100647.00;;;;5097545;28;20850;-77
2022/04/04 05:50:36;;;;;;;15.10;13.20;;;2.80;1.00;3.40;100634.00;;;;5102868;28;20530;-78
2022/04/04 05:53:06;;;;;;;13.37;12.10;;;2.90;1.00;3.50;100638.00;;;;5115758;28;20442;-78
2022/04/04 05:55:35;;;;;;;15.83;12.90;;;3.00;1.00;3.60;100620.00;;;;5106911;28;20453;-79
2022/04/04 05:58:03;;;;;;;14.43;12.10;;;3.10;1.00;3.70;100641.00;;;;5097824;28;21082;-78
2022/04/04 06:00:32;;;;;;;13.20;11.87;;;3.10;1.00;3.70;100636.00;;;;5097495;28;20454;-77
2022/04/04 06:03:01;;;;;;;16.13;13.10;;;3.30;1.00;3.90;100632.00;;;;5111956;27;20485;-78
2022/04/04 06:05:30;;;;;;;14.57;12.00;;;3.30;1.00;4.00;100638.00;;;;5102389;28;20451;-79
2022/04/04 06:07:58;;;;;;;14.17;12.87;;;3.50;1.00;4.00;100634.00;;;;5116020;28;20454;-79
2022/04/04 06:10:28;;;;;;;13.00;11.60;;;3.60;1.00;4.20;100632.00;;;;5110483;28;20457;-79
2022/04/04 06:12:56;;;;;;;14.73;13.13;;;3.70;1.00;4.10;100630.00;;;;5116556;27;20452;-79
2022/04/04 06:15:25;;;;;;;15.20;12.67;;;3.60;1.00;4.20;100627.00;;;;5105357;28;20457;-78
2022/04/04 06:17:53;;;;;;;13.77;12.40;;;3.60;1.00;4.10;100620.00;;;;5098007;28;20465;-79
2022/04/04 06:20:22;;;;;;;14.00;11.33;;;3.60;1.00;4.10;100603.00;;;;5096344;28;20489;-78
2022/04/04 06:22:50;;;;;;;12.97;11.67;;;3.60;1.00;4.00;100628.00;;;;5102788;28;20472;-79
2022/04/04 06:25:21;;;;;;;14.07;12.70;;;3.50;1.00;4.00;100591.00;;;;5098239;28;20492;-79
2022/04/04 06:27:51;;;;;;;14.23;12.70;;;3.50;1.00;4.10;100612.00;;;;5100183;28;20469;-78
2022/04/04 06:30:21;;;;;;;13.67;12.23;;;3.60;1.00;4.20;100619.00;;;;5099031;28;20451;-79
2022/04/04 06:32:49;;;;;;;14.10;11.70;;;3.70;1.00;4.30;100626.00;;;;5099969;28;20449;-79
2022/04/04 06:35:18;;;;;;;14.63;11.23;;;3.80;1.00;4.30;100604.00;;;;5096412;28;20471;-79
2022/04/04 06:37:48;;;;;;;12.87;11.53;;;3.80;1.00;4.40;100612.00;;;;5097908;28;20474;-78
2022/04/04 06:40:16;;;;;;;13.00;11.70;;;3.90;1.00;4.30;100610.00;;;;5097269;28;20566;-80
2022/04/04 06:42:46;;;;;;;12.83;11.63;;;3.90;1.00;4.40;100606.00;;;;5101173;28;20457;-79
2022/04/04 06:45:17;;;;;;;13.13;11.13;;;3.90;1.00;4.20;100609.00;;;;5099219;28;20452;-78
2022/04/04 06:47:48;;;;;;;13.77;12.30;;;3.70;1.00;4.10;100590.00;;;;5106554;28;20500;-80
2022/04/04 06:50:17;;;;;;;12.13;10.80;;;3.50;1.00;4.20;100605.00;;;;5114523;28;20498;-78
2022/04/04 06:52:45;;;;;;;12.37;10.90;;;3.60;1.00;4.30;100604.00;;;;5128540;28;20435;-77
2022/04/04 06:55:33;;;;;;;13.83;12.37;;;3.70;1.00;4.60;100595.00;;;;5132724;28;20433;-77
2022/04/04 06:58:02;;;;;;;11.27;10.27;;;3.90;1.00;4.70;100612.00;;;;5132986;28;20472;-79
2022/04/04 07:00:32;;;;;;;13.50;11.80;;;3.90;1.00;4.90;100582.00;;;;5114880;28;20517;-78
2022/04/04 07:03:00;;;;;;;11.93;10.70;;;4.20;1.00;5.00;100600.00;;;;5116127;28;20461;-78
2022/04/04 07:05:29;;;;;;;12.47;11.17;;;4.30;1.00;4.90;100592.00;;;;5114802;28;20457;-78
2022/04/04 07:07:57;;;;;;;10.83;9.73;;;4.30;1.00;5.00;100588.00;;;;5100447;28;20518;-78
2022/04/04 07:10:27;;;;;;;11.77;10.63;;;4.40;1.00;5.00;100579.00;;;;5096713;28;20449;-78
2022/04/04 07:12:55;;;;;;;11.53;10.43;;;4.40;1.00;5.10;100581.00;;;;5093743;28;20467;-79
2022/04/04 07:15:23;;;;;;;12.57;11.27;;;4.40;1.00;5.10;100578.00;;;;5090943;28;20477;-79
2022/04/04 07:17:53;;;;;;;11.90;10.60;;;4.40;1.00;5.00;100573.00;;;;5100614;28;20458;-77
2022/04/04 07:20:22;;;;;;;12.63;11.43;;;4.30;1.00;5.10;100586.00;;;;5104274;28;20561;-77
2022/04/04 07:22:52;;;;;;;14.13;10.67;;;4.40;1.00;5.00;100571.00;;;;5110793;28;20449;-77
2022/04/04 07:25:21;;;;;;;11.90;10.80;;;4.30;1.00;5.00;100567.00;;;;5109390;28;21274;-78
2022/04/04 07:27:49;;;;;;;11.47;10.37;;;4.40;1.00;5.00;100568.00;;;;5110765;28;20474;-78
2022/04/04 07:30:20;;;;;;;11.43;10.33;;;4.40;1.00;5.10;100557.00;;;;5098857;28;20450;-78
2022/04/04 07:32:50;;;;;;;15.13;11.23;;;4.50;1.00;5.10;100559.00;;;;5114969;28;20445;-79
2022/04/04 07:35:21;;;;;;;12.63;10.90;;;4.50;1.00;5.20;100555.00;;;;5093577;28;20457;-80
2022/04/04 07:37:51;;;;;;;12.10;11.00;;;4.60;1.00;5.30;100540.00;;;;5098698;28;20576;-79
2022/04/04 07:40:22;;;;;;;12.37;11.13;;;4.70;1.00;5.60;100550.00;;;;5104660;28;20478;-78
2022/04/04 07:42:52;;;;;;;11.63;10.43;;;5.00;1.00;5.80;100541.00;;;;5096562;28;21361;-79
2022/04/04 07:45:21;;;;;;;12.17;10.97;;;5.20;1.00;6.10;100536.00;;;;5101155;28;20481;-79
2022/04/04 07:47:50;;;;;;;12.03;10.83;;;5.60;1.00;6.20;100545.00;;;;5101663;28;20466;-79
2022/04/04 07:50:20;;;;;;;12.23;11.00;;;5.70;1.00;6.20;100534.00;;;;5098371;28;20556;-80
2022/04/04 07:52:49;;;;;;;12.10;10.90;;;5.80;1.00;6.20;100522.00;;;;5104606;28;20453;-78
2022/04/04 07:55:18;;;;;;;12.83;11.63;;;5.80;1.00;6.00;100530.00;;;;5108279;28;21182;-79
2022/04/04 07:57:47;;;;;;;13.10;10.80;;;5.80;1.00;5.90;100521.00;;;;5115056;28;20490;-78
2022/04/04 08:00:18;;;;;;;12.00;10.90;;;5.30;1.00;5.90;100527.00;;;;5108433;28;20483;-79
2022/04/04 08:02:47;;;;;;;11.90;10.80;;;5.30;1.00;6.00;100512.00;;;;5106444;28;20494;-78
2022/04/04 08:05:16;;;;;;;11.10;10.00;;;5.50;1.00;6.00;100506.00;;;;5110219;28;20448;-79
2022/04/04 08:07:48;;;;;;;11.93;10.90;;;5.50;1.00;5.90;100511.00;;;;5104397;28;20469;-79
2022/04/04 08:10:17;;;;;;;12.27;10.50;;;5.30;1.00;6.00;100511.00;;;;5120690;27;20455;-79
2022/04/04 08:12:46;;;;;;;11.63;10.53;;;5.40;1.00;6.10;100503.00;;;;5103147;28;20445;-80
2022/04/04 08:15:14;;;;;;;11.10;10.00;;;5.50;1.00;6.40;100507.00;;;;5109091;28;20453;-79
2022/04/04 08:17:44;;;;;;;12.17;11.07;;;5.90;1.00;6.60;100493.00;;;;5110625;28;20499;-78
2022/04/04 08:20:14;;;;;;;12.70;11.40;;;6.10;1.00;6.80;100488.00;;;;5108572;28;20465;-78
2022/04/04 08:22:46;;;;;;;11.30;10.20;;;6.30;1.00;6.70;100477.00;;;;5119035;27;20475;-78
2022/04/04 08:25:16;;;;;;;13.30;9.93;;;6.20;1.00;6.60;100482.00;;;;5097289;28;20452;-77
2022/04/04 08:27:44;;;;;;;11.83;10.53;;;6.10;1.00;6.70;100494.00;;;;5100616;28;20481;-78
2022/04/04 08:30:16;;;;;;;12.07;10.77;;;6.20;1.00;6.60;100473.00;;;;5096169;28;20461;-79
2022/04/04 08:32:44;;;;;;;11.43;10.40;;;6.20;1.00;6.80;100474.00;;;;5098793;28;20495;-79
2022/04/04 08:35:14;;;;;;;12.30;11.00;;;6.40;1.00;7.10;100469.00;;;;5097809;27;21000;-80
2022/04/04 08:37:46;;;;;;;11.03;9.97;;;6.70;1.00;7.20;100488.00;;;;5095932;28;21129;-80
2022/04/04 08:40:19;;;;;;;12.10;10.33;;;6.70;1.00;7.40;100453.00;;;;5097248;28;20470;-79
2022/04/04 08:42:48;;;;;;;10.27;9.17;;;7.00;1.00;7.30;100476.00;;;;5097576;28;20500;-79
2022/04/04 08:45:17;;;;;;;10.73;8.47;;;6.80;1.00;7.10;100480.00;;;;5097191;28;21017;-79
2022/04/04 08:47:45;;;;;;;9.83;8.80;;;6.70;1.00;7.00;100447.00;;;;5095576;28;20500;-79
2022/04/04 08:50:14;;;;;;;12.67;10.10;;;6.40;1.00;6.90;100463.00;;;;5098324;28;20478;-79
2022/04/04 08:52:44;;;;;;;10.77;9.67;;;6.40;1.00;6.90;100458.00;;;;5091221;28;20456;-79
2022/04/04 08:55:15;;;;;;;9.83;8.93;;;6.30;1.00;7.00;100446.00;;;;5098021;28;20450;-80
2022/04/04 08:57:44;;;;;;;11.30;10.27;;;6.40;1.00;7.20;100446.00;;;;5114538;27;20505;-81
2022/04/04 09:00:14;;;;;;;10.33;9.30;;;6.50;1.00;7.50;100440.00;;;;5101003;28;20468;-80
2022/04/04 09:03:02;;;;;;;9.37;8.17;;;6.80;1.00;7.80;100438.00;;;;5101065;28;20456;-79
2022/04/04 09:05:33;;;;;;;13.17;10.00;;;7.10;1.00;8.00;100428.00;;;;5098470;28;20453;-80
2022/04/04 09:08:05;;;;;;;11.40;8.80;;;7.40;1.00;8.10;100415.00;;;;5113896;27;20462;-79
2022/04/04 09:10:40;;;;;;;9.43;8.47;;;7.80;1.00;8.10;100420.00;;;;5107916;28;20458;-79
2022/04/04 09:13:11;;;;;;;9.80;8.80;;;7.50;1.00;8.20;100412.00;;;;5118183;28;20477;-78
2022/04/04 09:15:56;;;;;;;10.27;9.37;;;8.00;1.00;8.30;100411.00;;;;5122365;28;20442;-78
2022/04/04 09:18:49;;;;;;;11.40;10.30;;;7.80;1.00;8.40;100402.00;;;;5119235;28;20541;-78
2022/04/04 09:21:35;;;;;;;11.10;9.30;;;8.00;1.00;8.50;100399.00;;;;5104331;28;20486;-79
2022/04/04 09:24:10;;;;;;;10.40;9.30;;;8.00;1.00;8.60;100367.00;;;;5099234;28;20450;-78
2022/04/04 09:26:43;;;;;;;11.20;10.10;;;8.20;1.00;8.80;100385.00;;;;5098552;28;20477;-79
2022/04/04 09:29:17;;;;;;;12.43;10.00;;;8.40;1.00;8.80;100381.00;;;;5102156;28;20441;-79
2022/04/04 09:31:59;;;;;;;9.90;8.90;;;8.40;1.00;8.70;100360.00;;;;5102547;28;20474;-79
2022/04/04 09:34:28;;;;;;;6.97;6.33;;;8.20;1.00;8.70;100364.00;;;;5113698;27;20500;-77
2022/04/04 09:36:58;;;;;;;8.67;7.70;;;8.20;1.00;8.80;100354.00;;;;5117716;27;20473;-79
2022/04/04 09:39:26;;;;;;;8.50;7.00;;;8.30;1.00;8.90;100356.00;;;;5110057;28;20545;-79
2022/04/04 09:42:00;;;;;;;8.73;7.30;;;8.20;1.00;9.20;100353.00;;;;5106081;28;20463;-83
2022/04/04 09:44:28;;;;;;;7.70;6.93;;;8.90;1.00;9.40;100335.00;;;;5108633;28;20458;-84
2022/04/04 09:46:56;;;;;;;8.67;6.47;;;9.10;1.00;9.50;100343.00;;;;5101142;28;20564;-80
2022/04/04 09:49:28;;;;;;;7.50;6.83;;;9.30;1.00;9.50;100335.00;;;;5107045;28;20479;-78
2022/04/04 09:51:57;;;;;;;6.30;5.70;;;9.20;1.00;9.50;100335.00;;;;5121546;27;20480;-81
2022/04/04 09:54:29;;;;;;;5.10;4.70;;;9.20;1.00;9.50;100321.00;;;;5099258;28;20454;-80
2022/04/04 09:57:13;;;;;;;6.00;5.43;;;9.20;1.00;9.60;100310.00;;;;5098738;28;20505;-78
2022/04/04 09:59:43;;;;;;;11.33;6.40;;;9.20;1.00;9.90;100313.00;;;;5093815;28;20472;-79
2022/04/04 10:02:14;;;;;;;9.33;5.27;;;9.50;1.00;10.30;100291.00;;;;5092662;28;20459;-78
2022/04/04 10:04:45;;;;;;;5.90;5.37;;;9.80;1.00;10.70;100309.00;;;;5091137;28;20449;-79
2022/04/04 10:07:17;;;;;;;6.83;6.23;;;10.20;1.00;11.10;100293.00;;;;5091707;28;20493;-80
2022/04/04 10:09:46;;;;;;;7.30;6.30;;;10.80;1.00;11.30;100288.00;;;;5093942;28;20565;-81
2022/04/04 10:12:16;;;;;;;6.97;6.37;;;11.10;1.00;11.50;100266.00;;;;5092667;28;20450;-80
2022/04/04 10:14:45;;;;;;;8.53;6.03;;;11.20;1.00;11.40;100276.00;;;;5093940;28;20446;-80
2022/04/04 10:17:15;;;;;;;7.00;5.30;;;11.10;1.00;11.20;100261.00;;;;5093013;28;20466;-80
2022/04/04 10:19:44;;;;;;;7.97;5.67;;;11.00;1.00;11.10;100249.00;;;;5093696;28;20457;-80
2022/04/04 10:22:12;;;;;;;6.50;5.90;;;10.70;1.00;11.20;100258.00;;;;5100092;27;20454;-81
2022/04/04 10:24:43;;;;;;;6.30;5.63;;;10.80;1.00;11.30;100235.00;;;;5098503;28;20461;-79
2022/04/04 10:27:13;;;;;;;7.23;6.27;;;10.90;1.00;11.60;100238.00;;;;5106941;28;20488;-80
2022/04/04 10:29:44;;;;;;;8.43;5.90;;;11.30;1.00;11.70;100227.00;;;;5098427;28;20507;-79
2022/04/04 10:32:24;;;;;;;6.67;5.70;;;11.30;1.00;11.80;100240.00;;;;5098361;28;20460;-79
2022/04/04 10:34:52;;;;;;;8.50;5.77;;;11.40;1.00;12.00;100222.00;;;;5093883;28;20537;-79
2022/04/04 10:37:23;;;;;;;6.43;5.77;;;11.60;1.00;12.00;100244.00;;;;5092109;28;20580;-79
2022/04/04 10:39:52;;;;;;;7.10;6.50;;;11.60;1.00;11.90;100218.00;;;;5106913;27;20836;-79
2022/04/04 10:42:31;;;;;;;7.13;6.37;;;11.50;1.00;12.00;100206.00;;;;5093109;28;20445;-80
2022/04/04 10:45:08;;;;;;;8.47;5.40;;;11.60;1.00;12.10;100204.00;;;;5090757;28;20482;-79
2022/04/04 10:47:42;;;;;;;6.47;5.87;;;11.70;1.00;12.20;100182.00;;;;5095897;28;20464;-79
2022/04/04 10:50:28;;;;;;;6.30;5.70;;;11.80;1.00;12.40;100184.00;;;;5093663;28;20465;-79
2022/04/04 10:53:00;;;;;;;6.10;5.50;;;12.00;1.00;12.50;100181.00;;;;5095282;28;20461;-79
2022/04/04 10:55:49;;;;;;;6.13;5.57;;;12.00;1.00;12.60;100195.00;;;;5095666;28;20828;-79
2022/04/04 10:58:24;;;;;;;5.57;5.07;;;12.10;1.00;12.60;100186.00;;;;5097224;28;21022;-79
2022/04/04 11:01:06;;;;;;;4.27;3.87;;;12.20;1.00;12.70;100172.00;;;;5095205;28;21020;-83
2022/04/04 11:03:39;;;;;;;6.40;5.60;;;12.30;1.00;12.70;100165.00;;;;5085731;28;20449;-78
2022/04/04 11:09:11;;;;;;;4.83;4.40;;;12.60;1.00;13.20;100185.00;;;;5092007;28;20457;-80
2022/04/04 11:11:49;;;;;;;5.07;4.53;;;12.80;1.00;13.30;100174.00;;;;5097352;28;20591;-78
2022/04/04 11:14:19;;;;;;;6.13;5.57;;;13.00;1.00;13.40;100157.00;;;;5096516;28;20451;-80
2022/04/04 11:17:36;;;;;;;5.67;5.07;;;13.10;1.00;13.40;100163.00;;;;5098531;28;20464;-81